createdAt,value
2023-02-17T00:00:31.480Z,9.56
2023-02-17T00:02:59.045Z,9.57
2023-02-17T00:05:26.842Z,9.56
2023-02-17T00:07:54.168Z,9.57
2023-02-17T00:10:20.784Z,9.56
2023-02-17T00:12:47.265Z,9.58
2023-02-17T00:15:13.808Z,9.57
2023-02-17T00:17:40.424Z,9.56
2023-02-17T00:20:07.557Z,9.59
2023-02-17T00:22:34.082Z,9.59
2023-02-17T00:25:00.792Z,9.61
2023-02-17T00:27:27.476Z,9.62
2023-02-17T00:29:54.113Z,9.64
2023-02-17T00:32:20.725Z,9.65
2023-02-17T00:34:49.617Z,9.67
2023-02-17T00:37:16.247Z,9.67
2023-02-17T00:39:42.908Z,9.68
2023-02-17T00:42:10.466Z,9.70
2023-02-17T00:44:37.061Z,9.69
2023-02-17T00:47:03.567Z,9.69
2023-02-17T00:49:30.228Z,9.68
2023-02-17T00:52:00.301Z,9.68
2023-02-17T00:54:27.061Z,9.69
2023-02-17T00:56:53.736Z,9.68
2023-02-17T00:59:20.331Z,9.70
2023-02-17T01:01:47.183Z,9.70
2023-02-17T01:04:13.795Z,9.71
2023-02-17T01:06:40.543Z,9.74
2023-02-17T01:09:09.409Z,9.73
2023-02-17T01:11:36.486Z,9.74
2023-02-17T01:14:05.506Z,9.74
2023-02-17T01:16:35.975Z,9.78
2023-02-17T01:19:07.648Z,9.75
2023-02-17T01:21:35.343Z,9.78
2023-02-17T01:24:04.681Z,9.79
2023-02-17T01:26:33.140Z,9.82
2023-02-17T01:29:02.157Z,9.80
2023-02-17T01:31:29.496Z,9.84
2023-02-17T01:33:58.161Z,9.82
2023-02-17T01:36:25.039Z,9.82
2023-02-17T01:38:51.723Z,9.80
2023-02-17T01:41:20.757Z,9.82
2023-02-17T01:44:16.499Z,9.80
2023-02-17T01:46:48.222Z,9.79
2023-02-17T01:49:23.509Z,9.76
2023-02-17T01:51:56.068Z,9.75
2023-02-17T01:54:30.225Z,9.72
2023-02-17T01:56:59.688Z,9.73
2023-02-17T01:59:26.641Z,9.71
2023-02-17T02:01:58.710Z,9.71
2023-02-17T02:04:29.544Z,9.68
2023-02-17T02:06:56.644Z,9.69
2023-02-17T02:09:36.449Z,9.69
2023-02-17T02:12:03.446Z,9.68
2023-02-17T02:14:32.704Z,9.71
2023-02-17T02:17:21.351Z,9.68
2023-02-17T02:20:08.766Z,9.71
2023-02-17T02:22:52.585Z,9.71
2023-02-17T02:25:56.700Z,9.71
2023-02-17T02:28:45.557Z,9.72
2023-02-17T02:31:29.913Z,9.73
2023-02-17T02:34:05.969Z,9.75
2023-02-17T02:36:56.213Z,9.79
2023-02-17T02:39:29.264Z,9.81
2023-02-17T02:42:03.454Z,9.82
2023-02-17T02:44:30.541Z,9.86
2023-02-17T02:47:02.605Z,9.88
2023-02-17T02:49:31.811Z,9.87
2023-02-17T02:52:21.313Z,9.88
2023-02-17T02:55:08.055Z,9.89
2023-02-17T02:57:51.215Z,9.89
2023-02-17T03:00:38.545Z,9.90
2023-02-17T03:03:15.426Z,9.90
2023-02-17T03:05:55.031Z,9.91
2023-02-17T03:08:49.045Z,9.90
2023-02-17T03:11:16.910Z,9.92
2023-02-17T03:13:43.404Z,9.91
2023-02-17T03:16:13.933Z,9.93
2023-02-17T03:18:40.581Z,9.93
2023-02-17T03:21:15.073Z,9.92
2023-02-17T03:23:42.545Z,9.92
2023-02-17T03:26:09.194Z,9.90
2023-02-17T03:28:35.810Z,9.88
2023-02-17T03:31:02.621Z,9.89
2023-02-17T03:33:29.414Z,9.90
2023-02-17T03:35:56.135Z,9.90
2023-02-17T03:38:22.919Z,9.91
2023-02-17T03:40:49.398Z,9.91
2023-02-17T03:43:17.914Z,9.93
2023-02-17T03:45:44.752Z,9.94
2023-02-17T03:48:11.290Z,9.95
2023-02-17T03:50:37.811Z,9.96
2023-02-17T03:53:04.290Z,9.97
2023-02-17T03:55:31.111Z,9.99
2023-02-17T03:57:57.650Z,9.99
2023-02-17T04:00:24.220Z,10.01
2023-02-17T04:02:50.699Z,10.03
2023-02-17T04:05:17.257Z,10.02
2023-02-17T04:07:43.810Z,10.07
2023-02-17T04:10:11.010Z,10.08
2023-02-17T04:12:37.538Z,10.09
2023-02-17T04:15:04.454Z,10.12
2023-02-17T04:17:31.069Z,10.16
2023-02-17T04:19:57.711Z,10.20
2023-02-17T04:22:24.242Z,10.23
2023-02-17T04:24:51.018Z,10.25
2023-02-17T04:27:17.560Z,10.29
2023-02-17T04:29:44.066Z,10.32
2023-02-17T04:32:10.652Z,10.34
2023-02-17T04:34:37.181Z,10.38
2023-02-17T04:37:03.828Z,10.40
2023-02-17T04:39:30.407Z,10.42
2023-02-17T04:41:57.337Z,10.44
2023-02-17T04:44:23.917Z,10.47
2023-02-17T04:46:50.433Z,10.48
2023-02-17T04:49:16.948Z,10.50
2023-02-17T04:51:43.481Z,10.51
2023-02-17T04:54:10.051Z,10.52
2023-02-17T04:56:36.534Z,10.52
2023-02-17T04:59:03.160Z,10.55
2023-02-17T05:01:29.749Z,10.57
2023-02-17T05:03:56.342Z,10.57
2023-02-17T05:06:22.886Z,10.57
2023-02-17T05:08:49.362Z,10.58
2023-02-17T05:11:16.544Z,10.58
2023-02-17T05:13:43.201Z,10.57
2023-02-17T05:16:09.928Z,10.52
2023-02-17T05:18:36.484Z,10.53
2023-02-17T05:21:03.096Z,10.53
2023-02-17T05:23:29.646Z,10.55
2023-02-17T05:25:56.193Z,10.56
2023-02-17T05:28:22.864Z,10.55
2023-02-17T05:30:49.972Z,10.56
2023-02-17T05:33:16.718Z,10.53
2023-02-17T05:35:43.440Z,10.57
2023-02-17T05:38:10.145Z,10.58
2023-02-17T05:40:36.660Z,10.58
2023-02-17T05:43:03.209Z,10.61
2023-02-17T05:45:29.733Z,10.62
2023-02-17T05:47:56.396Z,10.64
2023-02-17T05:50:22.990Z,10.65
2023-02-17T05:52:49.473Z,10.71
2023-02-17T05:55:16.050Z,10.75
2023-02-17T05:57:42.662Z,10.78
2023-02-17T06:00:09.884Z,10.83
2023-02-17T06:02:39.552Z,10.87
2023-02-17T06:05:06.585Z,10.92
2023-02-17T06:07:33.157Z,10.97
2023-02-17T06:09:59.679Z,10.98
2023-02-17T06:12:26.587Z,11.00
2023-02-17T06:14:53.233Z,11.00
2023-02-17T06:17:19.770Z,11.02
2023-02-17T06:19:46.208Z,11.00
2023-02-17T06:22:12.930Z,11.01
2023-02-17T06:24:39.538Z,11.06
2023-02-17T06:27:06.367Z,11.11
2023-02-17T06:29:33.329Z,11.11
2023-02-17T06:32:00.038Z,11.13
2023-02-17T06:34:26.702Z,11.17
2023-02-17T06:36:53.978Z,11.21
2023-02-17T06:39:20.456Z,11.22
2023-02-17T06:41:47.239Z,11.29
2023-02-17T06:44:13.794Z,11.33
2023-02-17T06:46:40.461Z,11.35
2023-02-17T06:49:07.124Z,11.40
2023-02-17T06:51:33.637Z,11.45
2023-02-17T06:54:00.184Z,11.49
2023-02-17T06:56:26.995Z,11.51
2023-02-17T07:01:56.407Z,11.52
2023-02-17T07:04:22.937Z,11.53
2023-02-17T07:06:49.504Z,11.49
2023-02-17T07:09:15.995Z,11.47
2023-02-17T07:11:42.728Z,11.42
2023-02-17T07:14:09.185Z,11.39
2023-02-17T07:16:35.757Z,11.35
2023-02-17T07:19:02.447Z,11.36
2023-02-17T07:21:28.985Z,11.39
2023-02-17T07:23:55.553Z,11.40
2023-02-17T07:26:22.415Z,11.43
2023-02-17T07:28:48.926Z,11.46
2023-02-17T07:31:17.512Z,11.49
2023-02-17T07:33:44.865Z,11.49
2023-02-17T07:36:16.854Z,11.49
2023-02-17T07:38:43.648Z,11.58
2023-02-17T07:41:14.201Z,11.62
2023-02-17T07:43:41.304Z,11.72
2023-02-17T07:46:10.255Z,11.80
2023-02-17T07:48:37.246Z,11.79
2023-02-17T07:51:08.925Z,11.97
2023-02-17T07:53:36.159Z,12.09
2023-02-17T07:56:08.500Z,12.16
2023-02-17T07:58:38.025Z,12.26
2023-02-17T08:01:19.828Z,12.33
2023-02-17T08:03:47.528Z,12.42
2023-02-17T08:06:17.504Z,12.48
2023-02-17T08:08:44.547Z,12.55
2023-02-17T08:11:13.655Z,12.60
2023-02-17T08:13:40.233Z,12.68
2023-02-17T08:16:07.046Z,12.76
2023-02-17T08:18:36.510Z,12.81
2023-02-17T08:21:03.812Z,12.85
2023-02-17T08:23:30.436Z,12.92
2023-02-17T08:25:58.298Z,13.02
2023-02-17T08:28:25.122Z,13.09
2023-02-17T08:30:51.875Z,13.11
2023-02-17T08:33:18.572Z,13.13
2023-02-17T08:35:45.594Z,13.19
2023-02-17T08:38:12.180Z,13.23
2023-02-17T08:40:38.859Z,13.35
2023-02-17T08:43:10.449Z,13.43
2023-02-17T08:45:37.360Z,13.49
2023-02-17T08:48:04.983Z,13.58
2023-02-17T08:50:33.029Z,13.67
2023-02-17T08:52:59.671Z,13.70
2023-02-17T08:55:26.187Z,13.77
2023-02-17T08:57:52.799Z,13.79
2023-02-17T09:00:19.402Z,13.86
2023-02-17T09:02:46.220Z,13.88
2023-02-17T09:05:14.067Z,13.96
2023-02-17T09:07:41.400Z,13.95
2023-02-17T09:10:09.088Z,14.03
2023-02-17T09:12:35.721Z,14.03
2023-02-17T09:15:02.268Z,14.13
2023-02-17T09:17:28.800Z,14.12
2023-02-17T09:19:55.334Z,14.14
2023-02-17T09:22:31.607Z,14.16
2023-02-17T09:24:58.895Z,14.18
2023-02-17T09:27:25.495Z,14.22
2023-02-17T09:29:52.036Z,14.27
2023-02-17T09:32:18.766Z,14.32
2023-02-17T09:34:45.522Z,14.32
2023-02-17T09:37:13.374Z,14.28
2023-02-17T09:39:39.966Z,14.20
2023-02-17T09:42:06.590Z,14.15
2023-02-17T09:44:43.553Z,14.11
2023-02-17T09:47:24.974Z,14.05
2023-02-17T09:49:57.355Z,14.06
2023-02-17T09:52:32.927Z,14.06
2023-02-17T09:55:07.726Z,14.06
2023-02-17T09:57:56.406Z,14.06
2023-02-17T10:00:32.488Z,14.04
2023-02-17T10:03:18.695Z,14.09
2023-02-17T10:05:55.833Z,14.15
2023-02-17T10:08:27.410Z,14.20
2023-02-17T10:11:05.633Z,14.24
2023-02-17T10:13:35.647Z,14.26
2023-02-17T10:16:10.336Z,14.34
2023-02-17T10:18:44.782Z,14.34
2023-02-17T10:21:16.386Z,14.32
2023-02-17T10:23:43.036Z,14.42
2023-02-17T10:26:34.004Z,14.50
2023-02-17T10:29:12.644Z,14.58
2023-02-17T10:32:00.670Z,14.68
2023-02-17T10:34:54.886Z,14.70
2023-02-17T10:38:02.068Z,14.70
2023-02-17T10:40:29.178Z,14.78
2023-02-17T10:43:01.288Z,14.85
2023-02-17T10:45:35.366Z,14.92
2023-02-17T10:48:09.443Z,14.98
2023-02-17T10:50:37.960Z,15.00
2023-02-17T10:53:14.364Z,15.06
2023-02-17T10:58:35.486Z,15.08
2023-02-17T11:01:03.473Z,15.11
2023-02-17T11:03:33.099Z,15.03
2023-02-17T11:06:09.408Z,15.07
2023-02-17T11:08:50.827Z,15.08
2023-02-17T11:11:24.309Z,15.20
2023-02-17T11:14:06.636Z,15.29
2023-02-17T11:16:46.277Z,15.42
2023-02-17T11:20:09.578Z,15.44
2023-02-17T11:22:34.338Z,15.47
2023-02-17T11:25:28.742Z,15.53
2023-02-17T11:28:07.139Z,15.63
2023-02-17T11:30:40.299Z,15.63
2023-02-17T11:33:26.944Z,15.64
2023-02-17T11:35:56.862Z,15.67
2023-02-17T11:38:26.157Z,15.54
2023-02-17T11:41:00.178Z,15.55
2023-02-17T11:43:29.991Z,15.63
2023-02-17T11:46:09.496Z,15.63
2023-02-17T11:49:14.439Z,15.66
2023-02-17T11:51:46.951Z,15.62
2023-02-17T11:58:06.760Z,15.63
2023-02-17T12:00:47.803Z,15.73
2023-02-17T12:03:48.500Z,15.78
2023-02-17T12:06:36.496Z,15.87
2023-02-17T12:09:09.107Z,15.84
2023-02-17T12:12:15.726Z,15.93
2023-02-17T12:15:03.538Z,15.94
2023-02-17T12:17:36.217Z,15.97
2023-02-17T12:20:15.213Z,15.97
2023-02-17T12:22:52.015Z,15.94
2023-02-17T12:25:38.678Z,16.01
2023-02-17T12:28:46.949Z,16.06
2023-02-17T12:31:29.780Z,16.07
2023-02-17T12:34:25.275Z,16.16
2023-02-17T12:37:10.954Z,16.18
2023-02-17T12:39:51.829Z,16.23
2023-02-17T12:42:30.445Z,16.33
2023-02-17T12:45:03.786Z,16.43
2023-02-17T12:48:10.290Z,16.43
2023-02-17T12:50:52.174Z,16.48
2023-02-17T12:53:48.929Z,16.41
2023-02-17T13:00:33.682Z,16.35
2023-02-17T13:03:37.253Z,16.43
2023-02-17T13:06:48.941Z,16.41
2023-02-17T13:10:08.033Z,16.45
2023-02-17T13:13:40.175Z,16.30
2023-02-17T13:30:12.849Z,16.22
2023-02-17T13:43:10.876Z,16.01
2023-02-17T13:47:10.076Z,15.96
2023-02-17T13:49:44.819Z,15.98
2023-02-17T13:56:24.655Z,15.90
2023-02-17T13:59:42.716Z,15.89
2023-02-17T14:05:59.547Z,15.70
2023-02-17T14:08:39.192Z,15.72
2023-02-17T14:11:18.414Z,15.74
2023-02-17T14:17:34.132Z,15.68
2023-02-17T14:20:33.149Z,15.74
2023-02-17T14:26:45.869Z,15.62
2023-02-17T14:29:32.975Z,15.50
2023-02-17T14:32:46.202Z,15.41
2023-02-17T14:39:00.008Z,15.19
2023-02-17T14:41:58.587Z,15.17
2023-02-17T14:44:44.157Z,15.19
2023-02-17T14:50:33.837Z,15.18
2023-02-17T14:53:41.755Z,15.23
2023-02-17T14:57:12.164Z,15.26
2023-02-17T15:03:34.490Z,15.30
2023-02-17T15:06:14.425Z,15.34
2023-02-17T15:09:03.324Z,15.25
2023-02-17T15:11:48.874Z,15.23
2023-02-17T15:14:46.265Z,15.25
2023-02-17T15:17:26.824Z,15.18
2023-02-17T15:30:12.580Z,15.10
2023-02-17T15:32:55.266Z,15.09
2023-02-17T15:35:42.653Z,15.11
2023-02-17T15:38:13.656Z,15.11
2023-02-17T15:40:41.456Z,15.12
2023-02-17T15:43:20.659Z,15.12
2023-02-17T15:45:47.673Z,15.09
2023-02-17T15:48:24.271Z,15.00
2023-02-17T15:50:51.376Z,14.97
2023-02-17T15:53:18.092Z,14.90
2023-02-17T15:55:45.172Z,14.84
2023-02-17T15:58:18.077Z,14.75
2023-02-17T16:00:45.708Z,14.69
2023-02-17T16:03:13.605Z,14.64
2023-02-17T16:05:40.285Z,14.59
2023-02-17T16:08:06.857Z,14.55
2023-02-17T16:10:34.621Z,14.54
2023-02-17T16:13:02.785Z,14.51
2023-02-17T16:15:31.948Z,14.48
2023-02-17T16:17:58.982Z,14.49
2023-02-17T16:20:34.391Z,14.41
2023-02-17T16:23:01.635Z,14.37
2023-02-17T16:25:29.516Z,14.37
2023-02-17T16:27:56.166Z,14.30
2023-02-17T16:30:29.249Z,14.34
2023-02-17T16:32:56.313Z,14.36
2023-02-17T16:35:31.235Z,14.37
2023-02-17T16:38:05.328Z,14.33
2023-02-17T16:40:34.821Z,14.34
2023-02-17T16:43:01.506Z,14.31
2023-02-17T16:45:31.850Z,14.27
2023-02-17T16:48:01.078Z,14.22
2023-02-17T16:50:33.725Z,14.26
2023-02-17T16:53:06.120Z,14.18
2023-02-17T16:55:34.423Z,14.16
2023-02-17T16:58:02.886Z,14.13
2023-02-17T17:00:33.091Z,14.10
2023-02-17T17:02:59.951Z,14.03
2023-02-17T17:05:28.711Z,14.02
2023-02-17T17:07:56.067Z,14.01
2023-02-17T17:10:31.320Z,13.91
2023-02-17T17:12:58.331Z,13.91
2023-02-17T17:15:25.008Z,13.88
2023-02-17T17:17:54.539Z,13.83
2023-02-17T17:20:23.349Z,13.82
2023-02-17T17:22:50.134Z,13.80
2023-02-17T17:25:17.445Z,13.81
2023-02-17T17:27:44.080Z,13.76
2023-02-17T17:30:18.324Z,13.75
2023-02-17T17:32:45.126Z,13.70
2023-02-17T17:35:11.980Z,13.69
2023-02-17T17:37:39.553Z,13.64
2023-02-17T17:40:07.516Z,13.61
2023-02-17T17:42:34.173Z,13.57
2023-02-17T17:45:00.647Z,13.55
2023-02-17T17:47:30.171Z,13.52
2023-02-17T17:49:57.168Z,13.52
2023-02-17T17:52:23.936Z,13.47
2023-02-17T17:54:50.553Z,13.45
2023-02-17T17:57:17.040Z,13.46
2023-02-17T17:59:43.752Z,13.40
2023-02-17T18:02:10.351Z,13.39
2023-02-17T18:04:36.966Z,13.35
2023-02-17T18:07:03.660Z,13.35
2023-02-17T18:09:34.696Z,13.30
2023-02-17T18:12:05.698Z,13.21
2023-02-17T18:14:32.658Z,13.18
2023-02-17T18:16:59.600Z,13.20
2023-02-17T18:19:26.689Z,13.19
2023-02-17T18:21:53.197Z,13.18
2023-02-17T18:24:19.902Z,13.12
2023-02-17T18:26:46.452Z,13.14
2023-02-17T18:29:13.152Z,13.06
2023-02-17T18:31:39.833Z,13.10
2023-02-17T18:34:06.480Z,13.10
2023-02-17T18:36:32.985Z,13.07
2023-02-17T18:38:59.516Z,13.07
2023-02-17T18:41:29.222Z,13.08
2023-02-17T18:43:57.451Z,13.06
2023-02-17T18:46:26.576Z,13.01
2023-02-17T18:48:55.349Z,13.02
2023-02-17T18:51:23.391Z,13.01
2023-02-17T18:53:50.890Z,13.00
2023-02-17T18:56:20.627Z,13.01
2023-02-17T18:58:48.029Z,13.03
2023-02-17T19:01:16.708Z,13.04
2023-02-17T19:03:44.333Z,13.03
2023-02-17T19:06:19.631Z,13.00
2023-02-17T19:08:48.032Z,13.03
2023-02-17T19:11:16.512Z,13.05
2023-02-17T19:13:43.008Z,13.03
2023-02-17T19:16:15.353Z,13.06
2023-02-17T19:18:43.524Z,13.10
2023-02-17T19:21:10.573Z,12.99
2023-02-17T19:23:37.895Z,13.07
2023-02-17T19:26:06.280Z,13.11
2023-02-17T19:28:35.258Z,13.11
2023-02-17T19:31:02.541Z,13.14
2023-02-17T19:33:29.062Z,13.14
2023-02-17T19:35:55.585Z,13.16
2023-02-17T19:38:22.169Z,13.20
2023-02-17T19:40:48.721Z,13.18
2023-02-17T19:43:15.316Z,13.15
2023-02-17T19:45:41.947Z,13.13
2023-02-17T19:48:08.465Z,13.20
2023-02-17T19:50:37.568Z,13.17
2023-02-17T19:53:04.129Z,13.18
2023-02-17T19:55:30.618Z,13.20
2023-02-17T19:57:57.135Z,13.20
2023-02-17T20:00:25.046Z,13.21
2023-02-17T20:02:51.922Z,13.26
2023-02-17T20:05:18.765Z,13.29
2023-02-17T20:07:45.240Z,13.29
2023-02-17T20:10:12.688Z,13.32
2023-02-17T20:12:39.349Z,13.31
2023-02-17T20:15:06.290Z,13.31
2023-02-17T20:17:32.974Z,13.31
2023-02-17T20:19:59.637Z,13.35
2023-02-17T20:22:26.471Z,13.36
2023-02-17T20:24:53.045Z,13.38
2023-02-17T20:27:19.586Z,13.39
2023-02-17T20:29:46.175Z,13.39
2023-02-17T20:32:12.817Z,13.45
2023-02-17T20:34:40.409Z,13.47
2023-02-17T20:37:08.069Z,13.47
2023-02-17T20:39:35.526Z,13.48
2023-02-17T20:42:03.258Z,13.51
2023-02-17T20:44:29.866Z,13.48
2023-02-17T20:46:57.242Z,13.50
2023-02-17T20:49:24.430Z,13.52
2023-02-17T20:51:51.199Z,13.56
2023-02-17T20:54:18.137Z,13.57
2023-02-17T20:56:46.670Z,13.56
2023-02-17T20:59:14.277Z,13.60
2023-02-17T21:01:42.039Z,13.61
2023-02-17T21:04:09.197Z,13.68
2023-02-17T21:06:38.499Z,13.71
2023-02-17T21:09:09.366Z,13.73
2023-02-17T21:11:35.985Z,13.78
2023-02-17T21:14:02.495Z,13.86
2023-02-17T21:16:30.920Z,13.86
2023-02-17T21:18:58.893Z,13.93
2023-02-17T21:21:26.136Z,13.96
2023-02-17T21:23:53.101Z,14.00
2023-02-17T21:26:20.057Z,14.01
2023-02-17T21:28:47.302Z,14.05
2023-02-17T21:31:15.189Z,14.07
2023-02-17T21:33:43.010Z,14.04
2023-02-17T21:36:17.733Z,14.09
2023-02-17T21:38:44.434Z,14.10
2023-02-17T21:41:16.495Z,14.06
2023-02-17T21:43:43.366Z,14.10
2023-02-17T21:46:11.848Z,14.17
2023-02-17T21:48:38.439Z,14.14
2023-02-17T21:51:09.909Z,14.18
2023-02-17T21:53:36.698Z,14.18
2023-02-17T21:56:04.924Z,14.20
2023-02-17T21:58:33.349Z,14.22
2023-02-17T22:01:00.356Z,14.21
2023-02-17T22:03:27.587Z,14.20
2023-02-17T22:05:54.080Z,14.17
2023-02-17T22:08:20.866Z,14.22
2023-02-17T22:10:47.603Z,14.20
2023-02-17T22:13:14.166Z,14.22
2023-02-17T22:15:40.688Z,14.24
2023-02-17T22:18:07.388Z,14.28
2023-02-17T22:20:34.337Z,14.26
2023-02-17T22:23:00.898Z,14.23
2023-02-17T22:25:27.358Z,14.27
2023-02-17T22:27:53.932Z,14.26
2023-02-17T22:30:20.753Z,14.29
2023-02-17T22:32:47.310Z,14.27
2023-02-17T22:35:14.163Z,14.22
2023-02-17T22:37:40.726Z,14.27
2023-02-17T22:40:08.267Z,14.28
2023-02-17T22:42:34.830Z,14.35
2023-02-17T22:45:01.405Z,14.26
2023-02-17T22:47:28.044Z,14.24
2023-02-17T22:49:54.564Z,14.23
2023-02-17T22:52:21.205Z,14.24
2023-02-17T22:54:47.797Z,14.24
2023-02-17T22:57:14.280Z,14.23
2023-02-17T22:59:41.015Z,14.15
2023-02-17T23:02:07.573Z,14.21
2023-02-17T23:04:34.330Z,14.22
2023-02-17T23:07:00.899Z,14.22
2023-02-17T23:09:27.456Z,14.24
2023-02-17T23:11:54.527Z,14.24
2023-02-17T23:14:21.159Z,14.24
2023-02-17T23:16:47.801Z,14.31
2023-02-17T23:19:16.461Z,14.30
2023-02-17T23:21:47.927Z,14.26
2023-02-17T23:24:16.226Z,14.22
2023-02-17T23:26:42.792Z,14.28
2023-02-17T23:29:09.894Z,14.29
2023-02-17T23:31:37.816Z,14.28
2023-02-17T23:34:04.787Z,14.26
2023-02-17T23:36:31.691Z,14.24
2023-02-17T23:38:59.550Z,14.22
2023-02-17T23:41:26.976Z,14.19
2023-02-17T23:43:53.972Z,14.24
2023-02-17T23:46:20.845Z,14.22
2023-02-17T23:48:47.687Z,14.24
2023-02-17T23:51:18.803Z,14.22
2023-02-17T23:53:45.692Z,14.21
2023-02-17T23:56:22.952Z,14.19
2023-02-17T23:58:49.579Z,14.14
